Redcliff, Canada
Current Conditions -  °F | °C
As of 1:00 PM on Monday 22 Dec 2014 (Local Time) from CYXH Reporting Station
Broken Clouds Broken Clouds  
Wind Chill: 26°   Ceiling: 27000
Heat Index: 36°   Visibility: 30mi
Dew Point: 28°   Wind: 15mph
Humidity: 75%   Direction: 290°WNW
Pressure: 29.89"   Gusts: NA
Location:  50.08°N, 110.79°W
Report Text: CYXH 222000Z 29013KT 30SM SCT120 BKN270 02/M02 A2989 RMK AC4CI1 SLP145
Loading
Personal Weather Stations






























Interactive Weather Map New forecast layout! Learn more

10-Day Weather Forecast

Advertisements
Track Severe Weather on mobile